createdAt,value
2022-09-04T00:03:40.421Z,1.10
2022-09-04T00:09:03.334Z,1.10
2022-09-04T00:14:11.470Z,1.10
2022-09-04T00:19:22.181Z,1.30
2022-09-04T00:24:30.957Z,1.00
2022-09-04T00:29:45.232Z,1.00
2022-09-04T00:35:05.276Z,1.00
2022-09-04T00:40:20.359Z,0.95
2022-09-04T00:46:04.137Z,1.75
2022-09-04T00:51:28.831Z,1.25
2022-09-04T00:56:55.613Z,1.33
2022-09-04T01:02:09.002Z,1.20
2022-09-04T01:07:33.420Z,0.90
2022-09-04T01:12:42.796Z,1.00
2022-09-04T01:17:57.433Z,1.30
2022-09-04T01:23:16.511Z,1.10
2022-09-04T01:28:28.076Z,1.10
2022-09-04T01:33:37.493Z,1.02
2022-09-04T01:38:47.322Z,1.25
2022-09-04T01:43:52.026Z,1.40
2022-09-04T01:49:03.617Z,1.30
2022-09-04T01:54:25.805Z,1.50
2022-09-04T01:59:37.261Z,1.20
2022-09-04T02:04:48.701Z,1.50
2022-09-04T02:10:01.999Z,1.10
2022-09-04T02:15:12.685Z,1.08
2022-09-04T02:20:24.366Z,0.93
2022-09-04T02:25:31.780Z,1.30
2022-09-04T02:30:43.505Z,1.50
2022-09-04T02:35:52.911Z,1.13
2022-09-04T02:41:01.318Z,1.00
2022-09-04T02:46:14.037Z,1.10
2022-09-04T02:51:32.952Z,1.52
2022-09-04T02:56:48.882Z,1.23
2022-09-04T03:01:57.019Z,1.42
2022-09-04T03:07:10.051Z,1.20
2022-09-04T03:12:32.518Z,1.38
2022-09-04T03:17:46.046Z,1.13
2022-09-04T03:22:55.901Z,1.10
2022-09-04T03:27:58.534Z,1.30
2022-09-04T03:33:11.904Z,0.95
2022-09-04T03:38:21.843Z,1.00
2022-09-04T03:43:47.793Z,1.00
2022-09-04T03:49:06.779Z,1.40
2022-09-04T03:54:21.361Z,1.05
2022-09-04T03:59:50.358Z,1.20
2022-09-04T04:05:15.257Z,1.10
2022-09-04T04:10:29.344Z,1.52
2022-09-04T04:15:44.949Z,1.42
2022-09-04T04:21:01.490Z,1.40
2022-09-04T04:26:10.784Z,1.43
2022-09-04T04:31:23.749Z,1.42
2022-09-04T04:36:37.277Z,1.05
2022-09-04T04:41:52.017Z,1.42
2022-09-04T04:47:03.897Z,1.42
2022-09-04T04:52:32.931Z,1.10
2022-09-04T04:57:48.674Z,1.35
2022-09-04T05:03:01.855Z,1.40
2022-09-04T05:08:16.256Z,1.85
2022-09-04T05:13:26.954Z,1.58
2022-09-04T05:18:33.904Z,1.35
2022-09-04T05:23:46.961Z,1.33
2022-09-04T05:28:59.163Z,1.48
2022-09-04T05:34:09.860Z,1.25
2022-09-04T05:39:27.028Z,1.27
2022-09-04T05:44:46.010Z,1.27
2022-09-04T05:50:21.315Z,1.60
2022-09-04T05:55:55.873Z,1.40
2022-09-04T06:01:08.720Z,1.38
2022-09-04T06:06:20.897Z,1.38
2022-09-04T06:11:47.581Z,1.50
2022-09-04T06:17:01.162Z,1.50
2022-09-04T06:22:35.264Z,1.70
2022-09-04T06:28:08.912Z,1.58
2022-09-04T06:33:33.892Z,1.77
2022-09-04T06:38:53.154Z,1.55
2022-09-04T06:44:03.659Z,1.70
2022-09-04T06:49:15.068Z,1.65
2022-09-04T06:54:35.158Z,1.75
2022-09-04T07:00:02.132Z,2.10
2022-09-04T07:05:18.039Z,1.50
2022-09-04T07:10:25.858Z,1.80
2022-09-04T07:16:03.210Z,1.67
2022-09-04T07:21:13.589Z,1.80
2022-09-04T07:26:24.279Z,2.00
2022-09-04T07:31:35.302Z,1.90
2022-09-04T07:36:43.532Z,2.00
2022-09-04T07:41:54.019Z,2.00
2022-09-04T07:47:05.880Z,2.20
2022-09-04T07:52:18.416Z,2.00
2022-09-04T07:57:49.167Z,1.90
2022-09-04T08:03:07.629Z,1.92
2022-09-04T08:08:42.108Z,2.30
2022-09-04T08:14:09.570Z,2.10
2022-09-04T08:19:29.399Z,1.90
2022-09-04T08:24:49.070Z,1.88
2022-09-04T08:30:04.627Z,1.85
2022-09-04T08:35:17.772Z,1.70
2022-09-04T08:40:50.868Z,1.90
2022-09-04T08:46:30.882Z,2.15
2022-09-04T08:52:16.512Z,2.40
2022-09-04T08:57:56.693Z,1.77
2022-09-04T09:03:37.771Z,1.90
2022-09-04T09:09:27.642Z,1.85
2022-09-04T09:15:00.437Z,2.30
2022-09-04T09:20:20.049Z,1.70
2022-09-04T09:25:27.312Z,2.08
2022-09-04T09:30:43.376Z,2.35
2022-09-04T09:36:18.792Z,2.70
2022-09-04T09:42:02.319Z,2.07
2022-09-04T09:47:27.409Z,1.92
2022-09-04T09:53:04.053Z,1.90
2022-09-04T09:58:45.201Z,2.28
2022-09-04T10:04:24.352Z,2.10
2022-09-04T10:10:08.304Z,1.88
2022-09-04T10:15:53.935Z,2.15
2022-09-04T10:21:41.214Z,1.85
2022-09-04T10:27:23.364Z,2.00
2022-09-04T10:32:56.218Z,2.28
2022-09-04T10:38:29.291Z,1.80
2022-09-04T10:49:25.756Z,2.00
2022-09-04T10:54:54.077Z,1.90
2022-09-04T11:00:08.909Z,1.58
2022-09-04T11:05:31.860Z,1.63
2022-09-04T11:11:03.288Z,1.92
2022-09-04T11:16:23.979Z,1.33
2022-09-04T11:22:15.036Z,1.73
2022-09-04T11:27:53.838Z,1.73
2022-09-04T11:33:37.721Z,1.60
2022-09-04T11:39:09.269Z,2.10
2022-09-04T11:44:58.948Z,1.67
2022-09-04T11:50:23.929Z,1.70
2022-09-04T11:55:52.795Z,1.77
2022-09-04T12:01:08.500Z,1.60
2022-09-04T12:06:31.021Z,1.40
2022-09-04T12:11:59.612Z,1.52
2022-09-04T12:17:26.843Z,1.60
2022-09-04T12:23:07.988Z,1.60
2022-09-04T12:28:38.165Z,1.65
2022-09-04T12:34:06.432Z,1.45
2022-09-04T12:39:37.328Z,1.50
2022-09-04T12:44:55.458Z,1.50
2022-09-04T12:50:16.693Z,1.48
2022-09-04T12:55:29.139Z,1.70
2022-09-04T13:00:49.742Z,1.90
2022-09-04T13:06:19.710Z,1.50
2022-09-04T13:11:39.083Z,1.70
2022-09-04T13:16:54.988Z,1.45
2022-09-04T13:22:14.328Z,1.67
2022-09-04T13:27:28.514Z,1.80
2022-09-04T13:32:51.400Z,1.83
2022-09-04T13:38:17.005Z,1.70
2022-09-04T13:43:58.058Z,1.87
2022-09-04T13:49:08.521Z,1.30
2022-09-04T13:54:17.476Z,1.80
2022-09-04T13:59:22.827Z,1.52
2022-09-04T14:04:31.354Z,1.90
2022-09-04T14:09:39.479Z,1.80
2022-09-04T14:15:21.229Z,1.48
2022-09-04T14:20:30.272Z,1.65
2022-09-04T14:25:41.180Z,1.63
2022-09-04T14:30:56.288Z,1.73
2022-09-04T14:36:11.747Z,1.88
2022-09-04T14:41:26.566Z,1.58
2022-09-04T14:46:39.352Z,1.88
2022-09-04T14:51:46.152Z,1.90
2022-09-04T14:56:50.924Z,1.90
2022-09-04T15:02:28.112Z,1.85
2022-09-04T15:07:53.555Z,1.80
2022-09-04T15:13:21.856Z,1.95
2022-09-04T15:18:30.336Z,2.03
2022-09-04T15:23:39.199Z,1.85
2022-09-04T15:28:47.755Z,1.70
2022-09-04T15:33:58.930Z,1.92
2022-09-04T15:39:06.525Z,2.10
2022-09-04T15:44:18.025Z,2.05
2022-09-04T15:49:39.353Z,1.83
2022-09-04T15:55:20.294Z,1.73
2022-09-04T16:00:25.199Z,1.90
2022-09-04T16:05:38.454Z,1.73
2022-09-04T16:10:50.513Z,2.30
2022-09-04T16:16:03.509Z,1.98
2022-09-04T16:21:16.206Z,1.48
2022-09-04T16:26:26.944Z,2.00
2022-09-04T16:31:32.192Z,1.98
2022-09-04T16:36:41.103Z,1.60
2022-09-04T16:41:50.740Z,2.10
2022-09-04T16:46:57.952Z,1.60
2022-09-04T16:52:20.437Z,1.77
2022-09-04T16:57:33.247Z,1.60
2022-09-04T17:02:44.552Z,1.80
2022-09-04T17:07:53.473Z,1.60
2022-09-04T17:13:07.183Z,1.48
2022-09-04T17:18:14.448Z,1.48
2022-09-04T17:29:04.759Z,1.50
2022-09-04T17:29:33.727Z,1.60
2022-09-04T17:40:35.546Z,1.30
2022-09-04T17:40:49.126Z,1.67
2022-09-04T17:45:56.696Z,1.45
2022-09-04T17:51:02.276Z,1.65
2022-09-04T17:56:16.638Z,1.42
2022-09-04T18:01:26.003Z,1.60
2022-09-04T18:06:39.645Z,1.50
2022-09-04T18:12:00.149Z,1.45
2022-09-04T18:17:13.043Z,1.42
2022-09-04T18:22:33.176Z,1.38
2022-09-04T18:27:39.864Z,1.70
2022-09-04T18:37:20.410Z,1.25
2022-09-04T18:38:20.041Z,1.60
2022-09-04T18:50:23.894Z,1.50
2022-09-04T18:50:44.118Z,1.65
2022-09-04T18:54:35.587Z,2.20
2022-09-04T19:00:08.334Z,1.92
2022-09-04T19:05:44.284Z,2.00
2022-09-04T19:10:52.630Z,1.65
2022-09-04T19:16:05.969Z,1.90
2022-09-04T19:21:21.592Z,1.92
2022-09-04T19:26:34.536Z,2.00
2022-09-04T19:31:51.796Z,2.00
2022-09-04T19:37:26.053Z,1.77
2022-09-04T19:45:57.331Z,1.80
2022-09-04T19:48:00.152Z,2.00
2022-09-04T19:53:38.745Z,1.80
2022-09-04T19:58:53.087Z,1.60
2022-09-04T20:04:05.456Z,2.10
2022-09-04T20:09:18.363Z,2.38
2022-09-04T20:14:26.784Z,2.35
2022-09-04T20:19:39.203Z,2.20
2022-09-04T20:25:01.354Z,2.03
2022-09-04T20:30:09.132Z,2.05
2022-09-04T20:35:20.478Z,2.10
2022-09-04T20:40:42.421Z,2.03
2022-09-04T20:46:54.074Z,2.10
2022-09-04T20:53:00.199Z,2.30
2022-09-04T21:00:02.719Z,2.13
2022-09-04T21:03:11.326Z,2.20
2022-09-04T21:07:53.422Z,1.98
2022-09-04T21:13:14.283Z,1.90
2022-09-04T21:18:48.633Z,2.08
2022-09-04T21:24:38.139Z,2.03
2022-09-04T21:29:59.854Z,2.00
2022-09-04T21:35:12.526Z,1.90
2022-09-04T21:40:51.482Z,2.25
2022-09-04T21:46:12.870Z,2.05
2022-09-04T21:51:36.515Z,1.92
2022-09-04T22:02:26.112Z,1.88
2022-09-04T22:02:59.244Z,1.98
2022-09-04T22:12:22.375Z,1.85
2022-09-04T22:13:55.329Z,1.80
2022-09-04T22:19:16.219Z,2.00
2022-09-04T22:25:00.448Z,2.13
2022-09-04T22:30:08.163Z,2.22
2022-09-04T22:35:56.298Z,2.30
2022-09-04T22:41:29.696Z,2.70
2022-09-04T22:46:58.762Z,3.10
2022-09-04T22:52:38.705Z,2.80
2022-09-04T22:57:56.848Z,3.33
2022-09-04T23:03:40.818Z,3.28
2022-09-04T23:13:47.201Z,2.75
2022-09-04T23:15:08.352Z,2.72
2022-09-04T23:26:33.436Z,2.70
2022-09-04T23:27:00.048Z,3.30
2022-09-04T23:32:26.457Z,2.92
2022-09-04T23:38:02.550Z,2.45
2022-09-04T23:43:53.805Z,2.80
2022-09-04T23:49:24.741Z,2.65
2022-09-04T23:55:03.498Z,2.22
